Current | Forecast
Updated: 9:30 PM +08 on June 26, 2017
Observed at Kota Kinabalu, Malaysia
Temperature 27°C
Humidity 89%
Dew Point 25°C
Wind ESE at 4 km/h
Pressure 1010 hPa (Steady)
Conditions Mostly Cloudy
Visibility 10.0 kilometers
UV 0 out of 16
Clouds (FEW) : 426 m
Mostly Cloudy (BKN) : 8534 m
Yesterday's Maximum 33°C
Yesterday's Minimum 24°C approx.
Yesterday's Cooling Degree Days 18 approx.
Sunrise6:06 AM +08
Sunset6:31 PM +08
Moon Rise8:04 AM +08
Moon Set8:45 PM +08
Moon PhaseMoon Phase
Waxing Crescent
Raw METARMETAR WBKK 261330Z 12002KT 9999 FEW014 BKN280 27/25 Q1010 NOSIG


Monday
. High: 89° F.
Tuesday
. High: 89° F.
Wednesday
. High: 89° F.
Thursday
. High: 89° F.
Friday
. High: 91° F.
Saturday
. High: 89° F.
Sunday
. High: 89° F.
Monday
. High: 91° F.

Units: English | Metric

Find the Weather for any City, State or Zipcode, or Country:

U.S. State List | Severe Weather | Tropical Storms | Ski Conditions
United States | Canada | Central America | South America | Asia | Europe | Australia | Africa | Islands

Weather Underground

© Copyright 2017
The Weather Company, LLC